Time;durP1;ratioP1;P1;durP2;ratioP2;P2;SDS_P1;SDS_P2;PMS_P1;PMS_P2;Temp;Humidity;BMP_temperature;BMP_pressure;BME280_temperature;BME280_humidity;BME280_pressure;Samples;Min_cycle;Max_cycle;Signal;HPM_P1;HPM_P2
2022/12/08 00:01:09;;;;;;;23.53;13.50;;;;;;;;;;5026577;28;20040;-89
2022/12/08 00:03:37;;;;;;;24.38;14.50;;;;;;;;;;5029220;28;20296;-89
2022/12/08 00:11:31;;;;;;;23.15;13.85;;;;;;;;;;5028755;28;20541;-88
2022/12/08 00:13:57;;;;;;;25.93;14.63;;;;;;;;;;5013619;28;20038;-87
2022/12/08 00:16:22;;;;;;;22.52;14.63;;;;;;;;;;5027624;28;20037;-88
2022/12/08 00:18:47;;;;;;;24.80;14.57;;;;;;;;;;5027930;28;20045;-89
2022/12/08 00:21:12;;;;;;;23.50;13.63;;;;;;;;;;5028459;28;20277;-88
2022/12/08 00:23:38;;;;;;;22.48;14.18;;;;;;;;;;5030669;28;20679;-89
2022/12/08 00:26:04;;;;;;;25.50;14.20;;;;;;;;;;5028875;28;20112;-88
2022/12/08 00:28:30;;;;;;;23.80;14.50;;;;;;;;;;5027785;28;20071;-89
2022/12/08 00:30:55;;;;;;;22.50;13.68;;;;;;;;;;5028418;28;20128;-89
2022/12/08 00:33:20;;;;;;;24.80;14.10;;;;;;;;;;5028031;28;20128;-87
2022/12/08 00:35:45;;;;;;;23.00;13.33;;;;;;;;;;5027876;28;20451;-88
2022/12/08 00:38:10;;;;;;;25.03;14.57;;;;;;;;;;5027226;28;20783;-88
2022/12/08 00:40:36;;;;;;;22.50;12.90;;;;;;;;;;5029662;28;20040;-89
2022/12/08 00:43:01;;;;;;;24.57;14.03;;;;;;;;;;5027744;28;20040;-89
2022/12/08 00:45:26;;;;;;;24.37;14.33;;;;;;;;;;5027751;28;20548;-89
2022/12/08 00:47:51;;;;;;;25.77;14.63;;;;;;;;;;5028570;28;20037;-88
2022/12/08 00:50:17;;;;;;;25.83;15.02;;;;;;;;;;5022389;28;20038;-89
2022/12/08 00:52:42;;;;;;;21.47;13.43;;;;;;;;;;5015643;28;20125;-90
2022/12/08 00:55:10;;;;;;;21.50;13.53;;;;;;;;;;5008259;28;20384;-89
2022/12/08 00:57:35;;;;;;;22.58;13.27;;;;;;;;;;5010817;28;20269;-89
2022/12/08 01:00:00;;;;;;;21.48;13.63;;;;;;;;;;5029868;28;20034;-89
2022/12/08 01:02:26;;;;;;;25.20;13.67;;;;;;;;;;5027434;28;20037;-88
2022/12/08 01:04:51;;;;;;;24.35;13.88;;;;;;;;;;5028119;28;20276;-90
2022/12/08 01:07:16;;;;;;;24.17;13.05;;;;;;;;;;5029704;28;20617;-90
2022/12/08 01:09:42;;;;;;;23.13;12.98;;;;;;;;;;5030058;28;20061;-90
2022/12/08 01:12:08;;;;;;;22.35;13.07;;;;;;;;;;5029532;28;20041;-90
2022/12/08 01:14:33;;;;;;;23.42;13.88;;;;;;;;;;5029877;28;20180;-91
2022/12/08 01:16:58;;;;;;;24.15;12.98;;;;;;;;;;5035204;28;20045;-89
2022/12/08 01:19:23;;;;;;;21.67;12.80;;;;;;;;;;5033894;28;20033;-90
2022/12/08 01:21:48;;;;;;;24.20;13.60;;;;;;;;;;5035571;28;20283;-90
2022/12/08 01:24:15;;;;;;;23.57;13.17;;;;;;;;;;5030437;28;20352;-90
2022/12/08 01:26:40;;;;;;;24.35;13.52;;;;;;;;;;5029916;28;20264;-90
2022/12/08 01:29:06;;;;;;;19.48;11.77;;;;;;;;;;5030437;28;20037;-89
2022/12/08 01:31:31;;;;;;;20.27;12.55;;;;;;;;;;5027617;28;20038;-87
2022/12/08 01:33:57;;;;;;;22.60;13.33;;;;;;;;;;5027120;28;20079;-89
2022/12/08 01:36:27;;;;;;;23.67;12.70;;;;;;;;;;5027701;28;20280;-89
2022/12/08 01:38:53;;;;;;;23.70;13.35;;;;;;;;;;5027174;28;20113;-89
2022/12/08 01:41:19;;;;;;;21.85;12.75;;;;;;;;;;5023474;28;20037;-87
2022/12/08 01:44:19;;;;;;;24.00;12.98;;;;;;;;;;5031262;28;20044;-88
2022/12/08 01:46:47;;;;;;;20.57;12.67;;;;;;;;;;5020735;28;20037;-89
2022/12/08 01:49:12;;;;;;;20.70;12.45;;;;;;;;;;5025165;28;20189;-88
2022/12/08 01:51:41;;;;;;;25.13;13.93;;;;;;;;;;5020740;28;20045;-89
2022/12/08 01:54:06;;;;;;;23.73;12.73;;;;;;;;;;5019692;28;20064;-88
2022/12/08 01:56:40;;;;;;;21.77;13.10;;;;;;;;;;5030064;28;20029;-89
2022/12/08 01:59:06;;;;;;;23.00;13.32;;;;;;;;;;5028652;28;20527;-88
2022/12/08 02:01:31;;;;;;;26.60;13.90;;;;;;;;;;5030392;28;20120;-88
2022/12/08 02:03:58;;;;;;;23.35;13.77;;;;;;;;;;5024358;28;20120;-89
2022/12/08 02:06:32;;;;;;;23.48;13.32;;;;;;;;;;5022915;28;20045;-89
2022/12/08 02:08:58;;;;;;;22.08;12.65;;;;;;;;;;5013208;28;20061;-91
2022/12/08 02:11:23;;;;;;;23.30;13.75;;;;;;;;;;5013562;28;20041;-89
2022/12/08 02:13:49;;;;;;;23.93;13.00;;;;;;;;;;5013367;28;20472;-89
2022/12/08 02:16:14;;;;;;;22.83;12.90;;;;;;;;;;5013000;28;20359;-89
2022/12/08 02:18:49;;;;;;;23.57;12.57;;;;;;;;;;5013808;28;20118;-90
2022/12/08 02:21:21;;;;;;;21.42;12.57;;;;;;;;;;5013499;28;20285;-89
2022/12/08 02:23:55;;;;;;;22.35;12.70;;;;;;;;;;5013288;28;20165;-89
2022/12/08 02:26:29;;;;;;;23.83;12.50;;;;;;;;;;5012664;28;20041;-90
2022/12/08 02:29:10;;;;;;;24.23;12.55;;;;;;;;;;5013223;28;20034;-90
2022/12/08 02:31:51;;;;;;;21.75;12.25;;;;;;;;;;5012961;28;20068;-90
2022/12/08 02:34:22;;;;;;;21.02;11.52;;;;;;;;;;5012834;28;20038;-89
2022/12/08 02:36:50;;;;;;;;;;;;;;;;;;5014048;28;20038;-89
2022/12/08 02:39:18;;;;;;;23.33;12.00;;;;;;;;;;5014786;28;20372;-90
2022/12/08 02:41:52;;;;;;;20.70;12.50;;;;;;;;;;5014600;28;20060;-89
2022/12/08 02:44:36;;;;;;;25.80;12.73;;;;;;;;;;5012709;28;20030;-89
2022/12/08 02:47:04;;;;;;;21.52;12.50;;;;;;;;;;5013408;28;20080;-90
2022/12/08 02:49:30;;;;;;;19.60;12.05;;;;;;;;;;5012814;28;20599;-89
2022/12/08 02:52:06;;;;;;;21.75;12.32;;;;;;;;;;5011394;28;20042;-89
2022/12/08 02:54:32;;;;;;;22.10;11.60;;;;;;;;;;5012580;28;20058;-90
2022/12/08 02:57:00;;;;;;;17.40;10.68;;;;;;;;;;5013059;28;20541;-89
2022/12/08 02:59:40;;;;;;;20.20;12.10;;;;;;;;;;5012979;28;20063;-89
2022/12/08 03:02:20;;;;;;;21.55;11.50;;;;;;;;;;5012065;28;20042;-89
2022/12/08 03:04:52;;;;;;;17.80;10.50;;;;;;;;;;5012897;28;20042;-90
2022/12/08 03:07:21;;;;;;;17.40;10.68;;;;;;;;;;5012732;28;20037;-89
2022/12/08 03:09:53;;;;;;;18.23;10.45;;;;;;;;;;5012847;28;20538;-89
2022/12/08 03:12:21;;;;;;;16.40;10.38;;;;;;;;;;5012393;28;20040;-89
2022/12/08 03:14:48;;;;;;;17.80;10.63;;;;;;;;;;5012591;28;20553;-89
2022/12/08 03:17:14;;;;;;;27.45;12.32;;;;;;;;;;5012819;28;20061;-91
2022/12/08 03:19:40;;;;;;;18.33;11.32;;;;;;;;;;5012980;28;20072;-90
2022/12/08 03:22:12;;;;;;;20.65;11.88;;;;;;;;;;5012985;28;20134;-92
2022/12/08 03:24:40;;;;;;;19.67;11.23;;;;;;;;;;5012029;28;20550;-89
2022/12/08 03:27:11;;;;;;;19.95;11.95;;;;;;;;;;5012830;28;20038;-89
2022/12/08 03:29:36;;;;;;;21.10;12.15;;;;;;;;;;5013092;28;20044;-91
2022/12/08 03:32:15;;;;;;;22.85;13.00;;;;;;;;;;5027381;28;20128;-92
2022/12/08 03:34:47;;;;;;;21.90;12.23;;;;;;;;;;5031683;28;20044;-90
2022/12/08 03:37:13;;;;;;;23.83;13.13;;;;;;;;;;5031344;28;20060;-90
2022/12/08 03:39:38;;;;;;;20.58;12.27;;;;;;;;;;5033068;28;20116;-91
2022/12/08 03:42:03;;;;;;;20.57;11.47;;;;;;;;;;5031924;28;20038;-89
2022/12/08 03:44:31;;;;;;;21.27;12.40;;;;;;;;;;5032155;28;20287;-88
2022/12/08 03:46:57;;;;;;;19.60;11.60;;;;;;;;;;5031395;28;20056;-90
2022/12/08 03:49:22;;;;;;;23.23;12.35;;;;;;;;;;5031530;28;20033;-88
2022/12/08 03:51:47;;;;;;;20.30;12.18;;;;;;;;;;5031384;28;20475;-90
2022/12/08 03:54:13;;;;;;;22.90;12.67;;;;;;;;;;5030164;28;20037;-90
2022/12/08 03:56:38;;;;;;;22.80;13.80;;;;;;;;;;5031460;28;20276;-89
2022/12/08 03:59:04;;;;;;;20.92;13.05;;;;;;;;;;5031802;28;20088;-90
2022/12/08 04:01:30;;;;;;;22.33;12.60;;;;;;;;;;5031689;28;20041;-90
2022/12/08 04:03:55;;;;;;;23.02;12.20;;;;;;;;;;5031631;28;20061;-88
2022/12/08 04:06:21;;;;;;;21.20;12.75;;;;;;;;;;5030906;28;20043;-89
2022/12/08 04:08:46;;;;;;;22.40;12.68;;;;;;;;;;5031710;28;20052;-89
2022/12/08 04:11:11;;;;;;;22.88;12.20;;;;;;;;;;5030729;28;20459;-88
2022/12/08 04:13:38;;;;;;;22.23;11.90;;;;;;;;;;5031083;28;20037;-90
2022/12/08 04:16:03;;;;;;;20.92;11.75;;;;;;;;;;5030630;28;20041;-88
2022/12/08 04:18:29;;;;;;;22.80;12.85;;;;;;;;;;5031104;28;20063;-89
2022/12/08 04:20:54;;;;;;;21.52;12.35;;;;;;;;;;5031174;28;20029;-89
2022/12/08 04:23:19;;;;;;;24.08;13.32;;;;;;;;;;5031146;28;20052;-88
2022/12/08 04:25:44;;;;;;;21.98;12.32;;;;;;;;;;5031039;28;20112;-89
2022/12/08 04:28:10;;;;;;;19.77;12.07;;;;;;;;;;5029867;28;20026;-89
2022/12/08 04:30:38;;;;;;;24.23;13.18;;;;;;;;;;5030635;28;20509;-89
2022/12/08 04:33:03;;;;;;;21.25;12.57;;;;;;;;;;5030566;28;20039;-88
2022/12/08 04:35:29;;;;;;;23.20;12.95;;;;;;;;;;5030523;28;20038;-89
2022/12/08 04:37:54;;;;;;;24.17;13.10;;;;;;;;;;5031291;28;20038;-89
2022/12/08 04:40:19;;;;;;;18.40;12.30;;;;;;;;;;5030504;28;20136;-89
2022/12/08 04:42:47;;;;;;;19.53;12.40;;;;;;;;;;5030646;28;20268;-89
2022/12/08 04:45:12;;;;;;;21.30;12.43;;;;;;;;;;5030261;28;20276;-89
2022/12/08 04:47:37;;;;;;;22.57;12.53;;;;;;;;;;5030023;28;20083;-89
2022/12/08 04:50:03;;;;;;;21.00;12.23;;;;;;;;;;5030744;28;20033;-88
2022/12/08 04:52:28;;;;;;;19.55;11.55;;;;;;;;;;5029493;28;20272;-90
2022/12/08 04:54:53;;;;;;;21.10;12.00;;;;;;;;;;5030506;28;20052;-92
2022/12/08 04:57:18;;;;;;;21.57;12.30;;;;;;;;;;5030714;28;20056;-89
2022/12/08 04:59:44;;;;;;;25.05;13.48;;;;;;;;;;5030526;28;20265;-89
2022/12/08 05:02:09;;;;;;;19.37;11.33;;;;;;;;;;5030287;28;20080;-89
2022/12/08 05:04:34;;;;;;;20.80;11.60;;;;;;;;;;5030337;28;20268;-89
2022/12/08 05:06:59;;;;;;;23.97;12.63;;;;;;;;;;5030792;28;20038;-89
2022/12/08 05:09:25;;;;;;;20.65;12.35;;;;;;;;;;5030925;28;20280;-89
2022/12/08 05:11:52;;;;;;;18.65;10.85;;;;;;;;;;5032038;28;20029;-90
2022/12/08 05:14:18;;;;;;;19.80;11.82;;;;;;;;;;5031022;28;20044;-89
2022/12/08 05:16:44;;;;;;;21.52;12.55;;;;;;;;;;5032615;28;20057;-90
2022/12/08 05:19:09;;;;;;;21.13;12.77;;;;;;;;;;5031471;28;20378;-90
2022/12/08 05:21:34;;;;;;;18.98;11.90;;;;;;;;;;5030984;28;20029;-90
2022/12/08 05:23:59;;;;;;;20.73;12.20;;;;;;;;;;5035507;28;20030;-88
2022/12/08 05:26:25;;;;;;;23.07;12.57;;;;;;;;;;5034538;28;20999;-89
2022/12/08 05:28:50;;;;;;;22.50;12.70;;;;;;;;;;5037797;28;21081;-88
2022/12/08 05:31:16;;;;;;;24.13;12.65;;;;;;;;;;5036552;28;20044;-89
2022/12/08 05:33:41;;;;;;;21.40;12.18;;;;;;;;;;5034927;28;20033;-91
2022/12/08 05:36:07;;;;;;;21.50;12.38;;;;;;;;;;5035850;28;20030;-89
2022/12/08 05:38:33;;;;;;;23.75;13.32;;;;;;;;;;5032914;28;20399;-88
2022/12/08 05:40:59;;;;;;;21.42;12.02;;;;;;;;;;5030600;28;20121;-89
2022/12/08 05:43:24;;;;;;;27.25;13.10;;;;;;;;;;5030499;28;20117;-89
2022/12/08 05:45:49;;;;;;;23.73;13.07;;;;;;;;;;5032763;28;20061;-88
2022/12/08 05:48:14;;;;;;;23.00;12.67;;;;;;;;;;5034051;28;20346;-89
2022/12/08 05:50:44;;;;;;;23.05;12.60;;;;;;;;;;5035770;28;20120;-90
2022/12/08 05:53:09;;;;;;;22.88;12.82;;;;;;;;;;5031791;28;20042;-89
2022/12/08 05:55:35;;;;;;;18.92;11.68;;;;;;;;;;5028364;28;20034;-88
2022/12/08 05:58:00;;;;;;;20.47;11.87;;;;;;;;;;5029973;28;20061;-89
2022/12/08 06:00:25;;;;;;;20.27;12.17;;;;;;;;;;5025347;28;20361;-89
2022/12/08 06:02:50;;;;;;;20.37;11.23;;;;;;;;;;5015102;28;20288;-88
2022/12/08 06:05:15;;;;;;;21.83;12.83;;;;;;;;;;5028949;28;20072;-88
2022/12/08 06:07:41;;;;;;;21.58;12.30;;;;;;;;;;5028423;28;20128;-89
2022/12/08 06:10:06;;;;;;;22.37;12.27;;;;;;;;;;5028347;28;20041;-89
2022/12/08 06:12:31;;;;;;;22.23;12.15;;;;;;;;;;5029319;28;20264;-88
2022/12/08 06:14:57;;;;;;;23.58;12.70;;;;;;;;;;5029813;28;20030;-89
2022/12/08 06:17:22;;;;;;;23.02;12.45;;;;;;;;;;5021971;28;20068;-88
2022/12/08 06:19:47;;;;;;;20.90;12.30;;;;;;;;;;5028585;28;20564;-88
2022/12/08 06:22:12;;;;;;;20.83;12.07;;;;;;;;;;5028760;28;20831;-89
2022/12/08 06:24:37;;;;;;;21.70;11.97;;;;;;;;;;5028247;28;20080;-88
2022/12/08 06:27:03;;;;;;;21.43;12.43;;;;;;;;;;5030862;28;20269;-88
2022/12/08 06:29:28;;;;;;;26.23;12.85;;;;;;;;;;5031244;28;20041;-88
2022/12/08 06:31:53;;;;;;;20.23;12.30;;;;;;;;;;5031648;28;20033;-89
2022/12/08 06:34:18;;;;;;;20.50;11.60;;;;;;;;;;5030374;28;20628;-88
2022/12/08 06:36:43;;;;;;;16.67;10.10;;;;;;;;;;5030887;28;20794;-88
2022/12/08 06:39:09;;;;;;;21.45;11.20;;;;;;;;;;5031245;28;20361;-88
2022/12/08 06:42:42;;;;;;;19.17;10.93;;;;;;;;;;5031512;28;20041;-87
2022/12/08 06:44:20;;;;;;;18.85;10.88;;;;;;;;;;5032341;28;20033;-89
2022/12/08 06:46:45;;;;;;;20.73;11.93;;;;;;;-145.28;nan;87214.63;5030752;28;20041;-88
2022/12/08 06:49:10;;;;;;;18.70;10.75;;;;;;;;;;5026831;28;20366;-88
2022/12/08 06:51:35;;;;;;;20.93;11.40;;;;;;;;;;5026817;28;20072;-88
2022/12/08 06:54:01;;;;;;;21.10;11.33;;;;;;;22.39;100.00;119325.34;5015421;28;20038;-88
2022/12/08 06:56:26;;;;;;;17.90;10.32;;;;;;;;;;5027137;28;20836;-88
2022/12/08 06:58:52;;;;;;;19.08;10.63;;;;;;;;;;5023362;28;20037;-88
2022/12/08 07:01:17;;;;;;;20.67;10.77;;;;;;;;;;5031141;28;20125;-89
2022/12/08 07:03:42;;;;;;;18.70;11.03;;;;;;;;;;5031315;28;20308;-90
2022/12/08 07:06:10;;;;;;;19.60;10.50;;;;;;;;;;5032760;28;20279;-89
2022/12/08 07:08:35;;;;;;;15.98;9.95;;;;;;;;;;5034284;28;20037;-90
2022/12/08 07:11:07;;;;;;;19.40;11.38;;;;;;;;;;5032295;28;20788;-89
2022/12/08 07:13:33;;;;;;;21.25;11.43;;;;;;;;;;5031821;28;20041;-89
2022/12/08 07:15:58;;;;;;;18.67;11.23;;;;;;;;;;5031752;28;20111;-88
2022/12/08 07:18:24;;;;;;;20.27;11.65;;;;;;;;;;5031121;28;20631;-88
2022/12/08 07:20:49;;;;;;;20.08;10.90;;;;;;;;;;5031223;28;20508;-89
2022/12/08 07:23:14;;;;;;;20.15;11.63;;;;;;;;;;5031029;28;20037;-89
2022/12/08 07:25:39;;;;;;;24.33;12.23;;;;;;;;;;5031830;28;20041;-88
2022/12/08 07:28:08;;;;;;;21.73;11.77;;;;;;;;;;5031342;28;20112;-89
2022/12/08 07:30:34;;;;;;;20.98;11.63;;;;;;;;;;5031129;28;20049;-88
2022/12/08 07:33:00;;;;;;;22.98;12.13;;;;;;;;;;5031293;28;20060;-88
2022/12/08 07:35:26;;;;;;;20.92;12.13;;;;;;;;;;5031665;28;20037;-88
2022/12/08 07:37:51;;;;;;;22.02;12.52;;;;;;;;;;5030792;28;20038;-89
2022/12/08 07:40:16;;;;;;;22.77;12.30;;;;;;;;;;5031470;28;20029;-88
2022/12/08 07:42:42;;;;;;;25.98;13.35;;;;;;;;;;5032321;28;20068;-89
2022/12/08 07:45:07;;;;;;;22.27;12.15;;;;;;;;;;5031618;28;20124;-89
2022/12/08 07:47:33;;;;;;;20.00;12.45;;;;;;;;;;5032047;28;20033;-90
2022/12/08 07:49:58;;;;;;;21.60;12.53;;;;;;;;;;5032668;28;20048;-93
2022/12/08 07:52:23;;;;;;;18.75;10.80;;;;;;;;;;5032203;28;20305;-90
2022/12/08 07:54:49;;;;;;;22.13;12.43;;;;;;;;;;5033083;28;20093;-89
2022/12/08 07:57:14;;;;;;;20.90;12.93;;;;;;;;;;5031656;28;20033;-90
2022/12/08 07:59:39;;;;;;;23.17;12.90;;;;;;;;;;5031845;28;20355;-89
2022/12/08 08:02:10;;;;;;;21.95;12.85;;;;;;;;;;5031207;28;20128;-93
2022/12/08 08:04:36;;;;;;;24.92;13.32;;;;;;;;;;5031841;28;20064;-89
2022/12/08 08:07:01;;;;;;;23.20;12.93;;;;;;;;;;5031685;28;20029;-90
2022/12/08 08:09:26;;;;;;;25.67;13.77;;;;;;;;;;5031367;28;20041;-89
2022/12/08 08:11:51;;;;;;;24.70;13.00;;;;;;;;;;5031335;28;20286;-90
2022/12/08 08:14:18;;;;;;;21.98;13.40;;;;;;;;;;5030120;28;20116;-90
2022/12/08 08:16:45;;;;;;;21.88;12.77;;;;;;;;;;5030561;28;20068;-91
2022/12/08 08:19:10;;;;;;;25.17;13.15;;;;;;;;;;5031347;28;20053;-90
2022/12/08 08:21:36;;;;;;;22.92;12.88;;;;;;;;;;5031790;28;20106;-91
2022/12/08 08:24:01;;;;;;;22.35;12.88;;;;;;;;;;5032622;28;20045;-90
2022/12/08 08:26:26;;;;;;;24.20;13.13;;;;;;;;;;5029573;28;20036;-89
2022/12/08 08:28:52;;;;;;;19.75;11.13;;;;;;;;;;5030853;28;20038;-90
2022/12/08 08:31:17;;;;;;;24.95;13.73;;;;;;;;;;5031055;28;20053;-89
2022/12/08 08:33:42;;;;;;;26.40;12.98;;;;;;;;;;5030277;28;20049;-89
2022/12/08 08:36:08;;;;;;;19.80;11.17;;;;;;;;;;5029274;28;20056;-87
2022/12/08 08:38:34;;;;;;;24.77;12.88;;;;;;;;;;5021682;28;20279;-87
2022/12/08 08:41:05;;;;;;;23.25;12.32;;;;;;;;;;5027918;28;20048;-87
2022/12/08 08:43:35;;;;;;;23.33;13.07;;;;;;;;;;5030502;28;20052;-86
2022/12/08 08:46:01;;;;;;;23.08;12.73;;;;;;;;;;5032598;28;20523;-87
2022/12/08 08:48:29;;;;;;;21.48;12.55;;;;;;;;;;5028346;28;20043;-87
2022/12/08 08:50:54;;;;;;;25.92;13.77;;;;;;;;;;5025524;28;20041;-86
2022/12/08 08:53:20;;;;;;;20.50;12.32;;;;;;;;;;5028298;28;20037;-87
2022/12/08 08:55:45;;;;;;;22.73;12.90;;;;;;;;;;5029473;28;20049;-87
2022/12/08 08:58:10;;;;;;;25.07;13.23;;;;;;;;;;5026092;28;20038;-87
2022/12/08 09:00:35;;;;;;;23.20;12.93;;;;;;;;;;5024233;28;20295;-87
2022/12/08 09:03:01;;;;;;;22.70;12.15;;;;;;;;;;5029631;28;20033;-87
2022/12/08 09:05:26;;;;;;;19.48;11.70;;;;;;;;;;5030741;28;20048;-88
2022/12/08 09:07:51;;;;;;;19.73;12.00;;;;;;;;;;5026297;28;20095;-87
2022/12/08 09:10:16;;;;;;;25.07;13.60;;;;;;;;;;5025753;28;20381;-87
2022/12/08 09:12:42;;;;;;;25.75;13.48;;;;;;;;;;5018869;28;20819;-89
2022/12/08 09:15:07;;;;;;;24.95;13.57;;;;;;;;;;5027778;28;20473;-89
2022/12/08 09:17:33;;;;;;;21.95;12.93;;;;;;;;;;5028699;28;20037;-88
2022/12/08 09:19:59;;;;;;;21.90;12.90;;;;;;;;;;5027940;28;20033;-89
2022/12/08 09:22:25;;;;;;;23.08;13.35;;;;;;;;;;5010975;28;20049;-88
2022/12/08 09:24:50;;;;;;;24.17;13.70;;;;;;;;;;5028627;28;20049;-87
2022/12/08 09:27:15;;;;;;;23.70;12.23;;;;;;;;;;5028772;28;20037;-88
2022/12/08 09:29:40;;;;;;;23.97;12.70;;;;;;;;;;5031474;28;20041;-87
2022/12/08 09:32:06;;;;;;;23.02;12.32;;;;;;;;;;5028298;28;20459;-88
2022/12/08 09:34:31;;;;;;;23.45;12.60;;;;;;;;;;5028783;28;20040;-90
2022/12/08 09:36:56;;;;;;;22.48;12.57;;;;;;;22.38;100.00;159933.34;5028702;28;20045;-89
2022/12/08 09:39:22;;;;;;;21.40;11.85;;;;;;;;;;5023054;28;20551;-89
2022/12/08 09:41:51;;;;;;;23.27;12.23;;;;;;;;;;5017368;28;20084;-89
2022/12/08 09:44:22;;;;;;;22.08;12.73;;;;;;;;;;5012976;28;20273;-89
2022/12/08 09:46:47;;;;;;;;;;;;;;;;;;5026717;28;20072;-87
2022/12/08 09:49:17;;;;;;;22.63;11.63;;;;;;;;;;5011882;28;19980;-88
2022/12/08 09:51:43;;;;;;;21.88;12.98;;;;;;;;;;5031157;28;20448;-88
2022/12/08 09:54:20;;;;;;;22.00;11.80;;;;;;;;;;5027464;28;20033;-89
2022/12/08 09:56:46;;;;;;;23.17;11.75;;;;;;;;;;5028542;28;20037;-88
2022/12/08 09:59:28;;;;;;;20.98;11.98;;;;;;;;;;5028689;28;20036;-86
2022/12/08 10:01:53;;;;;;;21.73;12.13;;;;;;;;;;5020935;28;20513;-88
2022/12/08 10:04:27;;;;;;;23.27;12.55;;;;;;;;;;5029138;28;20057;-88
2022/12/08 10:06:55;;;;;;;20.45;11.07;;;;;;;;;;5033632;28;20067;-89
2022/12/08 10:09:27;;;;;;;21.38;11.70;;;;;;;;;;5031134;28;20049;-89
2022/12/08 10:11:56;;;;;;;20.17;10.90;;;;;;;;;;5035288;28;20141;-90
2022/12/08 10:14:54;;;;;;;19.33;11.43;;;;;;;;;;5027680;28;20041;-91
2022/12/08 10:17:22;;;;;;;17.42;10.50;;;;;;;;;;5009133;28;20053;-90
2022/12/08 10:19:49;;;;;;;19.95;11.00;;;;;;;-145.26;nan;65944.16;5025846;28;20603;-90
2022/12/08 10:22:20;;;;;;;16.10;10.30;;;;;;;;;;5031755;28;20041;-90
2022/12/08 10:24:52;;;;;;;20.13;11.48;;;;;;;;;;5037769;28;20129;-90
2022/12/08 10:27:17;;;;;;;17.85;10.63;;;;;;;;;;5044111;28;20044;-90
2022/12/08 10:29:45;;;;;;;18.93;10.40;;;;;;;;;;5033974;28;20042;-90
2022/12/08 10:32:19;;;;;;;19.08;10.70;;;;;;;;;;5040670;28;20671;-89
2022/12/08 10:34:58;;;;;;;18.27;10.57;;;;;;;;;;5035189;28;20056;-89
2022/12/08 10:37:23;;;;;;;16.38;10.13;;;;;;;;;;5028960;28;20026;-92
2022/12/08 10:39:57;;;;;;;17.73;11.07;;;;;;;;;;5026717;28;20038;-89
2022/12/08 10:42:22;;;;;;;19.83;10.85;;;;;;;;;;5029958;28;20041;-89
2022/12/08 10:44:47;;;;;;;22.90;12.13;;;;;;;;;;5031526;28;20044;-91
2022/12/08 10:47:13;;;;;;;21.20;11.60;;;;;;;;;;5024882;28;20277;-91
2022/12/08 10:49:38;;;;;;;20.55;13.20;;;;;;;;;;5028773;28;20048;-89
2022/12/08 10:52:08;;;;;;;21.60;11.98;;;;;;;;;;5028193;28;20048;-90
2022/12/08 10:54:36;;;;;;;22.37;12.07;;;;;;;;;;5014571;28;20041;-89
2022/12/08 10:57:01;;;;;;;18.85;11.55;;;;;;;;;;5026682;28;20037;-90
2022/12/08 10:59:26;;;;;;;20.13;11.77;;;;;;;;;;5027915;28;20037;-89
2022/12/08 11:01:53;;;;;;;19.20;11.27;;;;;;;;;;5027856;28;20072;-90
2022/12/08 11:04:20;;;;;;;17.42;10.73;;;;;;;;;;5025377;28;20688;-87
2022/12/08 11:06:46;;;;;;;18.40;10.90;;;;;;;;;;5031016;28;20289;-87
2022/12/08 11:09:17;;;;;;;21.70;12.00;;;;;;;;;;5033719;28;20203;-87
2022/12/08 11:11:42;;;;;;;18.48;10.20;;;;;;;;;;5030235;28;20042;-87
2022/12/08 11:14:07;;;;;;;17.73;11.03;;;;;;;;;;5026644;28;20107;-88
2022/12/08 11:16:33;;;;;;;18.65;11.20;;;;;;;;;;5031851;28;20060;-88
2022/12/08 11:19:05;;;;;;;19.27;11.63;;;;;;;;;;5025098;28;20045;-87
2022/12/08 11:21:36;;;;;;;19.83;12.52;;;;;;;;;;5031769;28;20064;-87
2022/12/08 11:24:22;;;;;;;19.17;11.15;;;;;;;;;;5022480;28;20080;-88
2022/12/08 11:26:50;;;;;;;17.27;9.95;;;;;;;;;;5024300;28;20133;-87
2022/12/08 11:29:16;;;;;;;20.70;11.65;;;;;;;;;;5027224;28;20044;-87
2022/12/08 11:31:48;;;;;;;18.90;10.73;;;;;;;;;;5031881;28;20034;-87
2022/12/08 11:34:19;;;;;;;18.60;11.10;;;;;;;;;;5031934;28;20033;-88
2022/12/08 11:36:45;;;;;;;18.17;10.82;;;;;;;;;;5027787;28;20153;-88
2022/12/08 11:39:11;;;;;;;16.23;10.43;;;;;;;;;;5024264;28;20116;-89
2022/12/08 11:41:38;;;;;;;17.88;10.80;;;;;;;;;;5026558;28;20637;-87
2022/12/08 11:44:15;;;;;;;16.80;10.52;;;;;;;;;;5021289;28;20053;-87
2022/12/08 11:46:51;;;;;;;19.02;10.30;;;;;;;;;;5027419;28;20037;-89
2022/12/08 11:49:17;;;;;;;17.90;9.95;;;;;;;;;;5028220;28;20429;-87
2022/12/08 11:51:51;;;;;;;17.63;10.00;;;;;;;5.19;nan;99585.44;5026788;28;20049;-88
2022/12/08 11:54:25;;;;;;;17.02;9.90;;;;;;;;;;5024471;28;20048;-87
2022/12/08 11:56:55;;;;;;;14.85;9.40;;;;;;;;;;5027383;28;20121;-87
2022/12/08 11:59:27;;;;;;;13.70;9.35;;;;;;;;;;5025419;28;20036;-87
2022/12/08 12:01:53;;;;;;;15.98;9.70;;;;;;;;;;5026861;28;20092;-86
2022/12/08 12:04:22;;;;;;;16.75;9.80;;;;;;;;;;5027148;28;20045;-87
2022/12/08 12:07:06;;;;;;;16.08;8.98;;;;;;;;;;5024680;28;20083;-89
2022/12/08 12:09:31;;;;;;;18.67;10.98;;;;;;;;;;5023681;28;20038;-86
2022/12/08 12:12:13;;;;;;;18.80;10.67;;;;;;;;;;5028376;28;20117;-86
2022/12/08 12:14:40;;;;;;;17.10;10.20;;;;;;;;;;5027894;28;20041;-87
2022/12/08 12:17:08;;;;;;;14.77;9.45;;;;;;;;;;5027725;28;20098;-86
2022/12/08 12:19:35;;;;;;;16.58;9.80;;;;;;;;;;5020713;28;20038;-86
2022/12/08 12:22:07;;;;;;;14.80;9.20;;;;;;;;;;5023818;28;20121;-86
2022/12/08 12:24:33;;;;;;;15.15;9.70;;;;;;;;;;5025601;28;20488;-86
2022/12/08 12:27:14;;;;;;;15.13;8.98;;;;;;;;;;5027422;28;20045;-86
2022/12/08 12:29:59;;;;;;;14.65;8.10;;;;;;;;;;5026137;28;20128;-86
2022/12/08 12:32:26;;;;;;;16.48;9.20;;;;;;;;;;5028368;28;20141;-86
2022/12/08 12:34:56;;;;;;;14.40;9.10;;;;;;;;;;5027985;28;20045;-86
2022/12/08 12:37:26;;;;;;;13.73;8.90;;;;;;;;;;5031562;28;20069;-86
2022/12/08 12:39:51;;;;;;;16.38;9.70;;;;;;;;;;5025397;28;20034;-86
2022/12/08 12:42:35;;;;;;;14.37;8.90;;;;;;;;;;5027878;28;20086;-86
2022/12/08 12:45:09;;;;;;;14.98;8.70;;;;;;;;;;5022197;28;20030;-86
2022/12/08 12:47:48;;;;;;;13.55;8.43;;;;;;;;;;5029525;28;20115;-86
2022/12/08 12:50:33;;;;;;;13.48;8.50;;;;;;;;;;5033073;28;20068;-86
2022/12/08 12:53:01;;;;;;;13.85;8.38;;;;;;;;;;5030458;28;20045;-86
2022/12/08 12:55:47;;;;;;;12.70;8.10;;;;;;;;;;5021677;28;20041;-86
2022/12/08 12:58:18;;;;;;;13.90;8.80;;;;;;;;;;5033853;28;20033;-86
2022/12/08 13:00:44;;;;;;;13.25;8.18;;;;;;;;;;5022539;28;20042;-86
2022/12/08 13:03:12;;;;;;;13.63;7.40;;;;;;;;;;5026888;28;20072;-86
2022/12/08 13:05:46;;;;;;;12.57;7.35;;;;;;;;;;5033724;28;20291;-86
2022/12/08 13:08:17;;;;;;;14.27;8.80;;;;;;;;;;5036881;28;20539;-85
2022/12/08 13:11:03;;;;;;;12.88;7.43;;;;;;;;;;5045194;28;20041;-86
2022/12/08 13:13:29;;;;;;;10.35;7.32;;;;;;;;;;5043817;28;20060;-86
2022/12/08 13:15:55;;;;;;;10.85;7.18;;;;;;;;;;5029878;28;20034;-86
2022/12/08 13:18:21;;;;;;;14.02;8.30;;;;;;;;;;5030023;28;20052;-86
2022/12/08 13:20:49;;;;;;;12.55;7.80;;;;;;;;;;5027794;28;20402;-86
2022/12/08 13:23:18;;;;;;;13.85;8.00;;;;;;;;;;5028663;28;20034;-86
2022/12/08 13:25:43;;;;;;;13.65;7.78;;;;;;;;;;5026634;28;20045;-86
2022/12/08 13:28:14;;;;;;;13.30;7.70;;;;;;;;;;5032668;28;20026;-86
2022/12/08 13:30:39;;;;;;;;;;;;;;;;;;5032789;28;20045;-86
2022/12/08 13:33:09;;;;;;;14.30;8.20;;;;;;;;;;5031960;28;19913;-86
2022/12/08 13:35:35;;;;;;;12.18;7.50;;;;;;;;;;5029086;28;20045;-87
2022/12/08 13:38:01;;;;;;;11.90;6.57;;;;;;;;;;5028645;28;20042;-87
2022/12/08 13:40:30;;;;;;;14.55;8.32;;;;;;;;;;5036883;28;20041;-86
2022/12/08 13:43:11;;;;;;;12.52;8.20;;;;;;;;;;5032604;28;20048;-88
2022/12/08 13:45:39;;;;;;;14.50;8.48;;;;;;;;;;5024296;28;20046;-89
2022/12/08 13:48:04;;;;;;;13.13;7.63;;;;;;;;;;5009129;28;20034;-88
2022/12/08 13:50:29;;;;;;;12.17;7.87;;;;;;;;;;5009820;28;20383;-88
2022/12/08 13:52:54;;;;;;;11.07;7.23;;;;;;;;;;5011602;28;20042;-88
2022/12/08 13:55:35;;;;;;;11.63;7.60;;;;;;;;;;5029744;28;20086;-89
2022/12/08 13:58:01;;;;;;;;;;;;;;;;;;5029750;28;20315;-88
2022/12/08 14:00:26;;;;;;;12.35;7.22;;;;;;;;;;5028535;28;19952;-88
2022/12/08 14:02:54;;;;;;;13.40;8.27;;;;;;;;;;5029001;28;20114;-90
2022/12/08 14:05:21;;;;;;;13.85;8.38;;;;;;;;;;5020194;28;20280;-88
2022/12/08 14:07:48;;;;;;;15.43;8.45;;;;;;;;;;5025781;28;20064;-87
2022/12/08 14:10:18;;;;;;;12.98;7.53;;;;;;;;;;5022410;28;20569;-87
2022/12/08 14:12:45;;;;;;;13.65;8.50;;;;;;;;;;5027859;28;20034;-87
2022/12/08 14:15:12;;;;;;;13.93;8.45;;;;;;;;;;5029204;28;20076;-88
2022/12/08 14:17:38;;;;;;;14.00;8.50;;;;;;;;;;5027131;28;20053;-88
2022/12/08 14:20:18;;;;;;;15.60;8.57;;;;;;;;;;5029161;28;20025;-88
2022/12/08 14:22:45;;;;;;;13.90;8.60;;;;;;;;;;5029379;28;20167;-87
2022/12/08 14:25:12;;;;;;;15.10;9.25;;;;;;;;;;5030648;28;20037;-91